Altro, Kentucky
Current Conditions -  °F | °C
As of 1:53 PM on Tuesday 21 Oct 2014 (Local Time) from KJKL Reporting Station
Overcast Overcast  
Wind Chill: 54°   Ceiling: 4100
Heat Index: 54°   Visibility: 10mi
Dew Point: 38°   Wind: 8mph
Humidity: 55%   Direction: 310°NW
Pressure: 30.01"   Gusts: 16mph
Location:  37.532°N, 83.3068°W
Report Text: KJKL 211753Z AUTO 31007G14KT 270V010 10SM BKN041 OVC055 12/03 A3001 RMK AO2 SLP160 T01220033 10139 20089 50001
Loading
Personal Weather Stations






























Interactive Weather Map
Tropical Storm Tracking
New forecast layout! Learn more

10-Day Weather Forecast

Advertisements
Track Severe Weather on mobile